AKDT,Max TemperatureF,Mean TemperatureF,Min TemperatureF,Max Dew PointF,MeanDew PointF,Min DewpointF,Max Humidity, Mean Humidity, Min Humidity, Max Sea Level PressureIn, Mean Sea Level PressureIn, Min Sea Level PressureIn, Max VisibilityMiles, Mean VisibilityMiles, Min VisibilityMiles, Max Wind SpeedMPH, Mean Wind SpeedMPH, Max Gust SpeedMPH,PrecipitationIn, CloudCover, Events, WindDirDegrees
2011-10-1,45,43,41,38,36,33,87,77,65,29.85,29.70,29.46,10,10,8,17,9,16,0.02,8,Rain,302
2011-10-2,51,46,42,42,39,34,87,76,58,29.46,29.37,29.25,10,10,6,20,9,26,0.09,8,Rain,221
2011-10-3,48,45,42,41,38,34,77,72,58,29.75,29.59,29.44,10,10,8,30,15,37,0.12,8,Rain,238
2011-10-4,50,46,42,43,39,34,93,78,59,29.76,29.45,29.23,10,9,3,30,11,44,0.16,6,Rain,163
2011-10-5,50,47,46,41,38,35,81,70,59,29.44,29.23,29.11,10,10,9,23,13,32,0.10,7,Rain,235
2011-10-6,48,46,44,40,38,36,81,74,63,29.84,29.67,29.46,10,10,10,20,10,25,0.06,8,Rain,242
2011-10-7,48,44,41,39,38,36,87,77,66,29.96,29.91,29.85,10,10,10,12,3,,0.00,7,Rain,65
2011-10-8,46,44,42,41,38,33,87,77,63,29.86,29.50,29.29,10,8,4,38,15,47,0.30,8,Rain,92
2011-10-9,45,43,41,38,34,31,79,71,62,29.75,29.60,29.37,10,10,10,22,14,33,0.01,8,Rain,5
2011-10-10,43,41,39,36,34,29,87,71,58,30.10,29.88,29.75,10,10,7,26,13,33,0.03,8,Rain,330
2011-10-11,46,42,39,36,34,29,79,69,60,30.26,30.14,30.05,10,10,8,30,15,38,0.07,6,Rain,306
2011-10-12,51,48,44,45,42,35,87,79,63,30.26,30.14,30.03,10,10,10,23,6,32,0.10,6,Rain,204
2011-10-13,57,52,46,46,44,39,87,75,62,30.04,29.45,29.08,10,9,4,41,15,59,0.28,7,Rain,207
2011-10-14,48,46,45,37,35,33,74,64,56,29.88,29.72,29.44,10,10,10,33,21,40,0.00,7,Rain,287
2011-10-15,46,42,39,39,36,33,86,77,61,29.96,29.92,29.88,10,10,7,13,6,,0.01,7,Rain,314
2011-10-16,45,42,39,39,36,34,93,81,65,30.00,29.97,29.93,10,10,9,7,4,,0.01,7,Rain,232
2011-10-17,46,44,42,37,36,34,80,74,66,30.08,29.98,29.92,10,10,8,17,9,,0.00,7,Rain,238
2011-10-18,46,42,39,36,33,31,82,70,58,30.09,30.03,29.84,10,10,10,16,10,,0.00,4,,255
2011-10-19,46,44,42,43,39,36,87,80,71,29.34,29.23,29.13,10,8,4,17,12,28,0.00,8,Rain,168
2011-10-20,45,42,39,39,38,36,89,82,71,29.13,29.10,29.08,10,10,9,20,8,28,0.04,8,Rain,318
2011-10-21,44,42,41,40,37,30,89,81,61,29.52,29.26,29.12,10,8,3,31,22,40,0.25,8,Rain,325
2011-10-22,46,44,42,36,35,33,79,72,63,29.80,29.68,29.51,10,10,10,20,15,24,0.01,7,Rain,268
2011-10-23,46,44,41,39,35,29,82,71,53,29.72,29.54,29.18,10,10,8,21,5,30,0.12,7,Rain,219
2011-10-24,46,42,39,36,33,27,81,69,57,29.50,29.24,29.09,10,9,2,43,23,56,0.17,7,Rain,288
2011-10-25,45,42,39,36,31,22,79,64,45,29.89,29.76,29.52,10,9,4,37,27,55,0.10,7,Rain,256
2011-10-26,44,40,37,38,33,27,82,73,57,29.89,29.64,29.41,10,9,3,41,17,52,0.27,7,Rain,283
2011-10-27,46,42,37,41,35,28,87,74,65,29.88,29.46,29.14,10,10,10,15,8,22,0.00,7,Rain,178
2011-10-28,45,42,39,39,35,33,87,77,66,29.20,29.01,28.92,10,10,3,34,10,45,0.12,7,Rain,244
2011-10-29,45,43,39,37,33,28,87,70,58,29.83,29.69,29.27,10,10,6,33,20,43,0.11,6,Rain,269
2011-10-30,46,42,39,40,33,25,83,70,51,29.82,29.57,29.40,10,9,2,41,11,50,0.28,6,Rain,221
2011-10-31,42,40,37,36,31,24,87,71,51,29.80,29.55,29.45,10,10,10,22,8,44,0.01,6,Rain,209